createdAt,value
2017-11-12T00:00:53.912Z,0.60
2017-11-12T00:03:22.767Z,0.60
2017-11-12T00:05:51.658Z,0.60
2017-11-12T00:08:20.504Z,0.43
2017-11-12T00:10:49.368Z,0.57
2017-11-12T00:13:18.250Z,0.57
2017-11-12T00:15:47.135Z,0.50
2017-11-12T00:18:15.986Z,0.50
2017-11-12T00:20:44.867Z,0.50
2017-11-12T00:23:13.737Z,0.53
2017-11-12T00:25:42.620Z,0.60
2017-11-12T00:28:11.507Z,0.70
2017-11-12T00:30:40.362Z,0.50
2017-11-12T00:33:09.282Z,0.80
2017-11-12T00:35:38.160Z,0.50
2017-11-12T00:38:07.014Z,0.60
2017-11-12T00:40:35.904Z,0.60
2017-11-12T00:43:04.766Z,0.50
2017-11-12T00:45:33.644Z,0.40
2017-11-12T00:48:02.512Z,0.50
2017-11-12T00:50:31.416Z,0.57
2017-11-12T00:53:00.272Z,0.83
2017-11-12T00:55:29.146Z,0.60
2017-11-12T00:57:58.023Z,0.50
2017-11-12T01:00:27.949Z,0.60
2017-11-12T01:02:56.831Z,1.07
2017-11-12T01:05:25.715Z,1.13
2017-11-12T01:07:54.747Z,0.50
2017-11-12T01:10:23.616Z,0.53
2017-11-12T01:12:52.467Z,0.50
2017-11-12T01:15:21.349Z,0.50
2017-11-12T01:17:50.207Z,0.60
2017-11-12T01:20:19.068Z,0.50
2017-11-12T01:22:47.931Z,0.50
2017-11-12T01:25:16.973Z,0.60
2017-11-12T01:27:45.828Z,0.40
2017-11-12T01:30:14.675Z,0.60
2017-11-12T01:32:43.564Z,0.97
2017-11-12T01:35:12.408Z,0.70
2017-11-12T01:37:41.279Z,0.70
2017-11-12T01:40:10.144Z,0.50
2017-11-12T01:42:39.043Z,0.50
2017-11-12T01:45:07.900Z,0.50
2017-11-12T01:47:36.794Z,0.60
2017-11-12T01:50:05.647Z,0.60
2017-11-12T01:52:34.500Z,0.60
2017-11-12T01:55:03.370Z,0.50
2017-11-12T01:57:32.236Z,0.70
2017-11-12T02:00:01.112Z,0.57
2017-11-12T02:02:29.963Z,0.60
2017-11-12T02:04:58.848Z,0.83
2017-11-12T02:07:27.700Z,0.97
2017-11-12T02:09:56.789Z,1.10
2017-11-12T02:12:25.662Z,0.70
2017-11-12T02:14:54.528Z,0.90
2017-11-12T02:17:23.395Z,1.07
2017-11-12T02:19:52.256Z,1.00
2017-11-12T02:22:21.129Z,0.87
2017-11-12T02:24:49.990Z,1.00
2017-11-12T02:27:18.860Z,0.93
2017-11-12T02:29:47.728Z,0.80
2017-11-12T02:32:16.625Z,1.00
2017-11-12T02:34:45.567Z,1.00
2017-11-12T02:37:14.450Z,1.00
2017-11-12T02:39:43.343Z,1.00
2017-11-12T02:42:12.194Z,1.37
2017-11-12T02:44:41.083Z,1.20
2017-11-12T02:47:09.968Z,0.80
2017-11-12T02:49:38.866Z,1.00
2017-11-12T02:52:07.753Z,1.00
2017-11-12T02:54:36.643Z,1.30
2017-11-12T02:57:05.508Z,1.37
2017-11-12T02:59:34.388Z,1.47
2017-11-12T03:02:03.244Z,1.43
2017-11-12T03:04:32.126Z,1.40
2017-11-12T03:07:00.997Z,1.90
2017-11-12T03:09:29.915Z,1.73
2017-11-12T03:11:58.799Z,1.40
2017-11-12T03:14:27.655Z,1.57
2017-11-12T03:16:56.519Z,2.00
2017-11-12T03:19:25.407Z,1.40
2017-11-12T03:21:54.309Z,1.20
2017-11-12T03:24:23.162Z,1.53
2017-11-12T03:26:52.036Z,1.60
2017-11-12T03:29:20.900Z,1.10
2017-11-12T03:31:49.830Z,1.10
2017-11-12T03:34:18.694Z,1.33
2017-11-12T03:36:47.606Z,1.50
2017-11-12T03:39:16.448Z,1.30
2017-11-12T03:41:45.581Z,1.47
2017-11-12T03:44:14.471Z,1.23
2017-11-12T03:46:43.327Z,1.50
2017-11-12T03:49:12.217Z,1.37
2017-11-12T03:51:41.080Z,1.47
2017-11-12T03:54:09.952Z,1.23
2017-11-12T03:56:38.814Z,1.80
2017-11-12T03:59:07.710Z,1.47
2017-11-12T04:01:36.571Z,1.70
2017-11-12T04:04:05.433Z,1.20
2017-11-12T04:06:34.313Z,1.20
2017-11-12T04:09:03.154Z,1.37
2017-11-12T04:11:32.014Z,1.63
2017-11-12T04:14:00.877Z,1.53
2017-11-12T04:16:29.754Z,1.80
2017-11-12T04:18:58.617Z,1.90
2017-11-12T04:21:27.477Z,2.80
2017-11-12T04:23:56.344Z,1.60
2017-11-12T04:26:25.200Z,1.87
2017-11-12T04:28:54.071Z,2.57
2017-11-12T04:31:22.923Z,2.77
2017-11-12T04:33:51.792Z,2.40
2017-11-12T04:36:20.655Z,2.27
2017-11-12T04:38:49.575Z,2.23
2017-11-12T04:41:18.444Z,1.90
2017-11-12T04:43:47.316Z,2.00
2017-11-12T04:46:16.196Z,2.00
2017-11-12T04:48:45.040Z,2.03
2017-11-12T04:51:13.914Z,2.83
2017-11-12T04:53:42.760Z,2.13
2017-11-12T04:56:11.641Z,3.03
2017-11-12T04:58:40.521Z,3.20
2017-11-12T05:01:09.406Z,2.90
2017-11-12T05:03:38.272Z,3.03
2017-11-12T05:06:07.354Z,3.30
2017-11-12T05:08:36.243Z,3.00
2017-11-12T05:11:05.125Z,3.57
2017-11-12T05:13:34.003Z,3.47
2017-11-12T05:16:02.874Z,3.80
2017-11-12T05:18:31.804Z,3.03
2017-11-12T05:21:00.656Z,2.50
2017-11-12T05:23:29.543Z,3.40
2017-11-12T05:25:58.395Z,2.70
2017-11-12T05:28:27.277Z,2.40
2017-11-12T05:30:56.127Z,2.57
2017-11-12T05:33:24.999Z,2.30
2017-11-12T05:35:53.870Z,2.67
2017-11-12T05:38:22.734Z,2.27
2017-11-12T05:40:51.604Z,2.50
2017-11-12T05:43:20.481Z,2.80
2017-11-12T05:45:49.370Z,2.63
2017-11-12T05:48:18.241Z,2.87
2017-11-12T05:50:47.160Z,2.63
2017-11-12T05:53:16.021Z,3.17
2017-11-12T05:55:44.863Z,3.00
2017-11-12T05:58:13.744Z,3.27
2017-11-12T06:00:42.599Z,3.50
2017-11-12T06:03:11.511Z,3.27
2017-11-12T06:05:40.375Z,3.73
2017-11-12T06:08:09.248Z,4.00
2017-11-12T06:10:38.104Z,3.70
2017-11-12T06:15:42.555Z,2.87
2017-11-12T06:18:11.443Z,4.07
2017-11-12T06:20:40.305Z,3.70
2017-11-12T06:23:09.163Z,3.57
2017-11-12T06:25:38.038Z,3.90
2017-11-12T06:28:06.903Z,3.50
2017-11-12T06:30:35.819Z,4.30
2017-11-12T06:33:04.722Z,3.70
2017-11-12T06:35:33.606Z,3.20
2017-11-12T06:38:02.473Z,3.70
2017-11-12T06:40:31.349Z,3.20
2017-11-12T06:43:00.199Z,3.23
2017-11-12T06:45:29.103Z,3.50
2017-11-12T06:47:58.036Z,4.20
2017-11-12T06:50:26.906Z,3.90
2017-11-12T06:52:55.776Z,4.13
2017-11-12T06:55:24.885Z,4.40
2017-11-12T06:57:53.736Z,4.77
2017-11-12T07:00:22.591Z,4.23
2017-11-12T07:02:51.449Z,4.83
2017-11-12T07:05:20.326Z,4.90
2017-11-12T07:07:49.216Z,5.20
2017-11-12T07:10:18.068Z,5.37
2017-11-12T07:12:46.939Z,4.40
2017-11-12T07:15:15.785Z,4.30
2017-11-12T07:17:44.688Z,4.10
2017-11-12T07:20:13.553Z,3.23
2017-11-12T07:22:42.406Z,3.40
2017-11-12T07:25:11.307Z,3.80
2017-11-12T07:27:40.176Z,4.10
2017-11-12T07:30:09.055Z,3.60
2017-11-12T07:32:37.902Z,3.67
2017-11-12T07:35:06.769Z,4.00
2017-11-12T07:37:35.630Z,3.80
2017-11-12T07:40:04.530Z,5.40
2017-11-12T07:42:33.469Z,4.37
2017-11-12T07:45:02.327Z,4.40
2017-11-12T07:47:31.203Z,4.50
2017-11-12T07:50:00.072Z,4.13
2017-11-12T07:52:28.955Z,6.13
2017-11-12T07:54:57.819Z,4.70
2017-11-12T07:57:26.727Z,3.87
2017-11-12T07:59:55.626Z,4.50
2017-11-12T08:02:24.513Z,4.10
2017-11-12T08:04:53.371Z,4.30
2017-11-12T08:07:22.240Z,4.83
2017-11-12T08:09:51.084Z,5.17
2017-11-12T08:12:20.032Z,5.33
2017-11-12T08:14:48.906Z,5.93
2017-11-12T08:17:17.781Z,4.43
2017-11-12T08:19:46.643Z,4.83
2017-11-12T08:22:15.504Z,5.00
2017-11-12T08:24:44.403Z,5.03
2017-11-12T08:27:13.260Z,5.77
2017-11-12T08:29:42.130Z,4.87
2017-11-12T08:32:10.982Z,4.80
2017-11-12T08:34:39.932Z,4.47
2017-11-12T08:37:08.804Z,3.70
2017-11-12T08:39:37.696Z,4.00
2017-11-12T08:42:06.555Z,4.20
2017-11-12T08:44:35.407Z,4.63
2017-11-12T08:47:04.315Z,4.93
2017-11-12T08:49:33.171Z,4.10
2017-11-12T08:52:02.107Z,3.53
2017-11-12T08:54:30.968Z,2.80
2017-11-12T08:56:59.850Z,2.47
2017-11-12T08:59:28.725Z,2.23
2017-11-12T09:01:57.622Z,2.40
2017-11-12T09:04:26.497Z,6.93
2017-11-12T09:06:55.344Z,3.20
2017-11-12T09:09:24.212Z,8.03
2017-11-12T09:11:53.075Z,2.83
2017-11-12T09:14:21.970Z,2.23
2017-11-12T09:16:50.856Z,1.83
2017-11-12T09:19:19.757Z,2.50
2017-11-12T09:21:48.611Z,2.00
2017-11-12T09:24:17.495Z,1.90
2017-11-12T09:26:46.343Z,1.80
2017-11-12T09:29:15.235Z,1.50
2017-11-12T09:31:44.076Z,1.80
2017-11-12T09:34:12.967Z,1.53
2017-11-12T09:36:41.854Z,1.73
2017-11-12T09:39:10.731Z,2.37
2017-11-12T09:41:39.581Z,2.10
2017-11-12T09:44:08.476Z,2.10
2017-11-12T09:46:37.323Z,2.13
2017-11-12T09:49:06.195Z,19.47
2017-11-12T09:51:35.071Z,6.87
2017-11-12T09:54:03.952Z,2.20
2017-11-12T09:56:32.820Z,1.93
2017-11-12T09:59:01.661Z,1.47
2017-11-12T10:01:30.535Z,1.40
2017-11-12T10:03:59.441Z,1.43
2017-11-12T10:06:28.306Z,1.40
2017-11-12T10:08:57.216Z,1.57
2017-11-12T10:11:26.089Z,1.20
2017-11-12T10:13:55.018Z,1.50
2017-11-12T10:16:23.882Z,1.20
2017-11-12T10:18:52.735Z,1.10
2017-11-12T10:21:21.791Z,1.40
2017-11-12T10:23:50.636Z,1.20
2017-11-12T10:26:19.498Z,1.20
2017-11-12T10:28:48.378Z,1.43
2017-11-12T10:31:17.227Z,0.90
2017-11-12T10:33:46.113Z,1.17
2017-11-12T10:36:14.963Z,1.13
2017-11-12T10:38:43.840Z,1.00
2017-11-12T10:41:12.687Z,1.37
2017-11-12T10:43:41.583Z,1.30
2017-11-12T10:46:10.443Z,1.50
2017-11-12T10:48:39.355Z,1.30
2017-11-12T10:51:08.250Z,1.90
2017-11-12T10:53:37.143Z,1.60
2017-11-12T10:56:06.032Z,1.50
2017-11-12T10:58:34.888Z,1.50
2017-11-12T11:01:03.789Z,2.00
2017-11-12T11:03:32.643Z,2.00
2017-11-12T11:06:01.542Z,0.90
2017-11-12T11:08:30.427Z,6.27
2017-11-12T11:10:59.294Z,2.40
2017-11-12T11:13:28.229Z,10.00
2017-11-12T11:15:57.101Z,1.30
2017-11-12T11:18:25.987Z,1.23
2017-11-12T11:20:54.840Z,0.93
2017-11-12T11:23:23.723Z,1.00
2017-11-12T11:28:27.817Z,1.27
2017-11-12T11:30:56.684Z,1.10
2017-11-12T11:33:25.535Z,1.20
2017-11-12T11:35:54.400Z,1.10
2017-11-12T11:38:23.255Z,1.20
2017-11-12T11:40:52.132Z,1.20
2017-11-12T11:43:21.121Z,1.40
2017-11-12T11:45:50.170Z,0.90
2017-11-12T11:48:19.017Z,1.10
2017-11-12T11:50:47.886Z,1.10
2017-11-12T11:53:16.749Z,1.30
2017-11-12T11:55:45.628Z,1.43
2017-11-12T11:58:14.505Z,1.20
2017-11-12T12:00:43.382Z,1.93
2017-11-12T12:03:12.252Z,1.50
2017-11-12T12:05:41.128Z,1.43
2017-11-12T12:08:10.041Z,1.27
2017-11-12T12:10:38.879Z,1.30
2017-11-12T12:13:07.730Z,1.40
2017-11-12T12:15:36.640Z,1.00
2017-11-12T12:18:05.510Z,0.83
2017-11-12T12:20:34.417Z,0.97
2017-11-12T12:23:03.268Z,0.87
2017-11-12T12:25:32.137Z,0.77
2017-11-12T12:28:00.989Z,1.00
2017-11-12T12:30:29.872Z,0.90
2017-11-12T12:32:58.730Z,0.90
2017-11-12T12:35:27.624Z,0.70
2017-11-12T12:37:56.492Z,0.60
2017-11-12T12:40:25.340Z,0.70
2017-11-12T12:42:54.285Z,0.80
2017-11-12T12:45:23.142Z,0.70
2017-11-12T12:47:52.019Z,0.63
2017-11-12T12:50:20.869Z,0.60
2017-11-12T12:52:49.795Z,0.80
2017-11-12T12:55:18.648Z,0.70
2017-11-12T12:57:47.516Z,0.67
2017-11-12T13:00:16.380Z,0.73
2017-11-12T13:02:45.267Z,0.80
2017-11-12T13:05:14.137Z,0.80
2017-11-12T13:07:42.996Z,0.70
2017-11-12T13:10:11.865Z,0.80
2017-11-12T13:12:40.760Z,0.70
2017-11-12T13:15:09.626Z,0.70
2017-11-12T13:17:38.493Z,0.60
2017-11-12T13:20:07.371Z,0.80
2017-11-12T13:22:36.219Z,0.60
2017-11-12T13:25:05.134Z,0.70
2017-11-12T13:27:33.984Z,0.70
2017-11-12T13:30:02.847Z,0.60
2017-11-12T13:32:31.717Z,0.60
2017-11-12T13:35:00.591Z,0.60
2017-11-12T13:37:29.522Z,1.23
2017-11-12T13:39:58.446Z,0.53
2017-11-12T13:42:27.312Z,0.60
2017-11-12T13:44:56.955Z,0.70
2017-11-12T13:47:25.801Z,3.97
2017-11-12T13:49:54.648Z,0.80
2017-11-12T13:52:23.520Z,1.67
2017-11-12T13:54:52.379Z,1.70
2017-11-12T13:57:21.271Z,0.60
2017-11-12T13:59:50.142Z,0.70
2017-11-12T14:02:19.020Z,0.97
2017-11-12T14:04:47.911Z,0.60
2017-11-12T14:07:16.776Z,0.80
2017-11-12T14:09:45.621Z,0.77
2017-11-12T14:12:14.508Z,0.63
2017-11-12T14:14:43.356Z,0.60
2017-11-12T14:17:12.239Z,0.60
2017-11-12T14:19:41.101Z,0.60
2017-11-12T14:22:09.951Z,0.50
2017-11-12T14:24:38.829Z,0.60
2017-11-12T14:27:07.705Z,0.50
2017-11-12T14:29:36.614Z,0.70
2017-11-12T14:32:05.483Z,1.10
2017-11-12T14:34:34.374Z,0.87
2017-11-12T14:37:03.232Z,1.40
2017-11-12T14:39:32.121Z,0.70
2017-11-12T14:42:00.967Z,0.70
2017-11-12T14:44:29.824Z,0.60
2017-11-12T14:46:58.704Z,0.60
2017-11-12T14:49:27.564Z,0.70
2017-11-12T14:51:56.465Z,0.60
2017-11-12T14:54:25.347Z,0.60
2017-11-12T14:56:54.243Z,0.60
2017-11-12T14:59:23.107Z,0.60
2017-11-12T15:01:52.029Z,0.60
2017-11-12T15:04:20.916Z,0.70
2017-11-12T15:06:49.816Z,0.63
2017-11-12T15:09:18.703Z,0.90
2017-11-12T15:11:47.600Z,0.80
2017-11-12T15:14:16.457Z,0.80
2017-11-12T15:16:45.330Z,0.77
2017-11-12T15:19:14.186Z,0.70
2017-11-12T15:21:43.094Z,0.77
2017-11-12T15:24:12.059Z,1.40
2017-11-12T15:26:40.931Z,0.70
2017-11-12T15:29:09.795Z,0.70
2017-11-12T15:31:38.812Z,0.80
2017-11-12T15:34:07.718Z,0.77
2017-11-12T15:36:36.587Z,0.53
2017-11-12T15:39:05.496Z,0.73
2017-11-12T15:41:34.435Z,0.70
2017-11-12T15:44:03.401Z,0.60
2017-11-12T15:46:32.297Z,6.93
2017-11-12T15:49:01.203Z,1.20
2017-11-12T15:51:30.102Z,0.70
2017-11-12T15:53:59.054Z,0.70
2017-11-12T15:56:27.923Z,0.60
2017-11-12T15:58:56.807Z,0.67
2017-11-12T16:01:25.702Z,0.90
2017-11-12T16:03:54.787Z,0.90
2017-11-12T16:06:23.676Z,1.27
2017-11-12T16:08:52.554Z,1.17
2017-11-12T16:11:21.434Z,0.60
2017-11-12T16:13:50.294Z,0.70
2017-11-12T16:16:19.177Z,0.90
2017-11-12T16:18:48.033Z,0.87
2017-11-12T16:21:16.910Z,0.63
2017-11-12T16:23:45.764Z,0.60
2017-11-12T16:26:14.670Z,0.70
2017-11-12T16:28:43.536Z,0.80
2017-11-12T16:31:12.381Z,0.80
2017-11-12T16:33:41.257Z,1.10
2017-11-12T16:36:10.111Z,0.67
2017-11-12T16:38:39.022Z,1.00
2017-11-12T16:41:07.880Z,1.17
2017-11-12T16:43:36.766Z,1.00
2017-11-12T16:46:05.637Z,1.30
2017-11-12T16:48:34.517Z,1.10
2017-11-12T16:51:03.606Z,0.70
2017-11-12T16:53:32.770Z,0.67
2017-11-12T16:56:01.657Z,0.70
2017-11-12T16:58:30.501Z,0.67
2017-11-12T17:00:59.372Z,0.80
2017-11-12T17:03:28.236Z,0.80
2017-11-12T17:05:57.113Z,0.93
2017-11-12T17:08:25.984Z,0.80
2017-11-12T17:10:54.878Z,0.80
2017-11-12T17:13:23.777Z,0.90
2017-11-12T17:15:52.736Z,0.70
2017-11-12T17:18:21.611Z,0.60
2017-11-12T17:20:50.503Z,0.70
2017-11-12T17:23:19.368Z,0.90
2017-11-12T17:25:48.220Z,0.70
2017-11-12T17:28:17.099Z,1.40
2017-11-12T17:30:46.009Z,0.97
2017-11-12T17:33:14.884Z,0.80
2017-11-12T17:35:43.759Z,0.73
2017-11-12T17:38:12.621Z,0.60
2017-11-12T17:40:41.510Z,0.50
2017-11-12T17:43:10.410Z,0.60
2017-11-12T17:45:39.296Z,0.70
2017-11-12T17:48:08.168Z,1.20
2017-11-12T17:50:37.058Z,1.27
2017-11-12T17:53:05.923Z,0.90
2017-11-12T17:55:34.799Z,0.70
2017-11-12T17:58:03.671Z,0.70
2017-11-12T18:00:32.560Z,0.70
2017-11-12T18:03:01.426Z,0.90
2017-11-12T18:05:30.363Z,0.90
2017-11-12T18:07:59.258Z,0.80
2017-11-12T18:10:28.187Z,0.70
2017-11-12T18:12:57.037Z,0.80
2017-11-12T18:15:25.955Z,0.63
2017-11-12T18:17:54.869Z,0.70
2017-11-12T18:20:23.748Z,0.70
2017-11-12T18:22:52.612Z,1.20
2017-11-12T18:25:21.506Z,1.00
2017-11-12T18:27:50.848Z,1.30
2017-11-12T18:30:19.759Z,1.80
2017-11-12T18:32:48.865Z,1.60
2017-11-12T18:35:17.779Z,1.10
2017-11-12T18:37:46.643Z,1.27
2017-11-12T18:40:15.502Z,1.20
2017-11-12T18:42:44.383Z,1.07
2017-11-12T18:45:13.280Z,0.97
2017-11-12T18:47:42.188Z,1.07
2017-11-12T18:50:11.090Z,0.97
2017-11-12T18:52:39.956Z,1.10
2017-11-12T18:55:11.567Z,1.30
2017-11-12T18:57:43.087Z,1.27
2017-11-12T19:00:17.846Z,1.13
2017-11-12T19:02:48.371Z,1.37
2017-11-12T19:05:37.069Z,1.10
2017-11-12T19:08:05.938Z,1.20
2017-11-12T19:10:34.831Z,1.13
2017-11-12T19:13:04.068Z,0.90
2017-11-12T19:15:32.940Z,1.73
2017-11-12T19:18:04.352Z,3.10
2017-11-12T19:20:49.044Z,1.30
2017-11-12T19:23:17.908Z,1.27
2017-11-12T19:26:03.464Z,1.50
2017-11-12T19:28:48.128Z,1.00
2017-11-12T19:31:17.045Z,1.50
2017-11-12T19:33:46.579Z,1.50
2017-11-12T19:36:15.494Z,1.60
2017-11-12T19:38:44.371Z,1.43
2017-11-12T19:41:13.269Z,1.50
2017-11-12T19:43:42.177Z,1.77
2017-11-12T19:46:11.058Z,1.63
2017-11-12T19:48:39.911Z,1.67
2017-11-12T19:51:08.790Z,1.70
2017-11-12T19:53:37.652Z,1.90
2017-11-12T19:56:06.529Z,2.00
2017-11-12T19:58:35.410Z,1.83
2017-11-12T20:01:04.288Z,2.10
2017-11-12T20:03:33.208Z,2.27
2017-11-12T20:06:02.127Z,2.47
2017-11-12T20:08:31.050Z,2.23
2017-11-12T20:10:59.912Z,1.83
2017-11-12T20:13:28.778Z,2.27
2017-11-12T20:15:57.641Z,2.27
2017-11-12T20:18:26.512Z,3.00
2017-11-12T20:20:55.372Z,3.30
2017-11-12T20:23:24.240Z,2.47
2017-11-12T20:25:53.093Z,2.07
2017-11-12T20:28:22.028Z,2.30
2017-11-12T20:30:50.884Z,2.47
2017-11-12T20:33:19.740Z,2.70
2017-11-12T20:35:48.615Z,2.53
2017-11-12T20:38:17.490Z,5.07
2017-11-12T20:40:46.352Z,2.97
2017-11-12T20:43:15.211Z,2.63
2017-11-12T20:45:44.131Z,2.33
2017-11-12T20:48:13.008Z,2.40
2017-11-12T20:50:41.891Z,2.50
2017-11-12T20:53:10.838Z,2.33
2017-11-12T20:55:39.703Z,2.73
2017-11-12T20:58:08.556Z,2.60
2017-11-12T21:00:37.447Z,2.70
2017-11-12T21:03:06.305Z,3.00
2017-11-12T21:05:35.168Z,2.97
2017-11-12T21:08:04.023Z,2.90
2017-11-12T21:10:32.900Z,2.90
2017-11-12T21:13:01.752Z,2.30
2017-11-12T21:15:30.632Z,2.50
2017-11-12T21:17:59.486Z,2.53
2017-11-12T21:20:33.348Z,4.27
2017-11-12T21:23:08.262Z,2.60
2017-11-12T21:25:37.124Z,2.80
2017-11-12T21:28:06.003Z,2.53
2017-11-12T21:30:40.510Z,2.63
2017-11-12T21:33:22.831Z,2.50
2017-11-12T21:35:54.753Z,3.03
2017-11-12T21:38:23.608Z,5.50
2017-11-12T21:40:52.512Z,3.57
2017-11-12T21:43:21.376Z,2.77
2017-11-12T21:45:50.270Z,3.03
2017-11-12T21:48:19.146Z,2.43
2017-11-12T21:50:48.037Z,2.17
2017-11-12T21:53:16.911Z,2.07
2017-11-12T21:55:45.791Z,2.30
2017-11-12T21:58:14.836Z,2.13
2017-11-12T22:00:43.711Z,2.50
2017-11-12T22:03:12.576Z,1.87
2017-11-12T22:05:41.548Z,2.10
2017-11-12T22:08:10.413Z,2.27
2017-11-12T22:10:39.322Z,2.80
2017-11-12T22:13:08.168Z,2.73
2017-11-12T22:15:37.048Z,2.50
2017-11-12T22:18:05.910Z,3.07
2017-11-12T22:20:34.845Z,2.80
2017-11-12T22:23:03.725Z,2.30
2017-11-12T22:25:32.596Z,2.83
2017-11-12T22:28:01.471Z,3.70
2017-11-12T22:30:30.343Z,2.57
2017-11-12T22:32:59.212Z,3.17
2017-11-12T22:35:28.078Z,2.77
2017-11-12T22:37:56.964Z,3.17
2017-11-12T22:40:25.832Z,3.07
2017-11-12T22:42:54.699Z,2.47
2017-11-12T22:45:23.613Z,2.90
2017-11-12T22:47:52.481Z,2.50
2017-11-12T22:50:21.396Z,2.77
2017-11-12T22:52:50.282Z,2.50
2017-11-12T22:55:19.184Z,2.90
2017-11-12T22:57:48.097Z,2.87
2017-11-12T23:00:16.967Z,2.93
2017-11-12T23:02:45.848Z,2.40
2017-11-12T23:05:14.735Z,2.90
2017-11-12T23:07:43.600Z,2.70
2017-11-12T23:10:12.468Z,2.20
2017-11-12T23:12:41.340Z,2.77
2017-11-12T23:15:10.207Z,2.80
2017-11-12T23:17:39.082Z,2.40
2017-11-12T23:20:07.958Z,2.60
2017-11-12T23:22:36.826Z,3.00
2017-11-12T23:25:05.694Z,2.70
2017-11-12T23:27:34.555Z,2.33
2017-11-12T23:30:03.469Z,2.27
2017-11-12T23:32:32.326Z,2.50
2017-11-12T23:35:01.194Z,2.80
2017-11-12T23:37:30.059Z,2.33
2017-11-12T23:39:58.991Z,2.43
2017-11-12T23:42:27.846Z,2.60
2017-11-12T23:44:56.727Z,2.73
2017-11-12T23:47:25.628Z,2.83
2017-11-12T23:49:54.504Z,2.13
2017-11-12T23:52:23.376Z,2.60
2017-11-12T23:54:52.232Z,2.53
2017-11-12T23:57:21.091Z,2.80
2017-11-12T23:59:49.946Z,2.40
